Terminal Aerodrome Forecast
Issued by NWS

Home | Current Version | Previous Version | Graphics & Text | Print | Product List | Glossary On
Versions: 1 2 3 4 5 6 7 8 9 10 11 12 13 14 15 16
034
FTUS43 KMPX 142321
TAFRWF
TAF
KRWF 142321Z 1500/1524 36011G16KT 3SM -SHRA BR OVC004
     FM150300 34015G28KT 4SM -SHRA BR OVC005
     FM150900 32014G21KT P6SM BKN020 OVC035
     FM151200 31010KT P6SM SCT035
     FM151900 28011KT P6SM BKN250=

USA.gov is the U.S. government's official web portal to all federal, state and local government web resources and services.